Terminal Aerodrome Forecast
Issued by NWS

Home | Current Version | Previous Version | Text Only | Print | Product List | Glossary Off
Versions: 1 2 3 4 5 6 7 8 9 10 11 12 13 14 15 16 17 18 19

000
FTUS43 KMPX 032237 AAA
TAFAXN
TAF AMD
KAXN 032237Z 0323/0418 35005KT 2SM FU SCT040 SCT250
     FM040000 33004KT 6SM FU SKC
     FM040600 VRB03KT P6SM SKC
      TEMPO 0410/0413 5SM HZ
     FM041400 15006KT P6SM SCT250=

USA.gov is the U.S. government's official web portal to all federal, state and local government web resources and services.